Time;durP1;ratioP1;P1;durP2;ratioP2;P2;SDS_P1;SDS_P2;PMS_P1;PMS_P2;Temp;Humidity;BMP_temperature;BMP_pressure;BME280_temperature;BME280_humidity;BME280_pressure;Samples;Min_cycle;Max_cycle;Signal;HPM_P1;HPM_P2
2024/02/02 00:00:29;;;;;;;12.48;2.30;;;7.00;99.90;;;;;;4964003;28;20035;-67
2024/02/02 00:02:55;;;;;;;14.73;1.85;;;7.00;99.90;;;;;;4963664;28;20041;-66
2024/02/02 00:05:21;;;;;;;4.50;1.63;;;7.00;99.90;;;;;;4964943;28;20041;-66
2024/02/02 00:07:47;;;;;;;8.38;2.13;;;7.00;99.90;;;;;;4966000;28;20027;-67
2024/02/02 00:10:13;;;;;;;15.65;2.75;;;7.00;99.90;;;;;;4962303;28;20082;-67
2024/02/02 00:12:39;;;;;;;10.13;2.60;;;7.00;99.90;;;;;;4965914;28;20023;-66
2024/02/02 00:15:05;;;;;;;14.57;2.35;;;6.90;99.90;;;;;;4962707;28;20023;-67
2024/02/02 00:17:31;;;;;;;18.08;2.90;;;7.00;99.90;;;;;;4964252;28;20506;-67
2024/02/02 00:19:57;;;;;;;7.03;2.42;;;6.90;99.90;;;;;;4964334;28;20058;-66
2024/02/02 00:22:24;;;;;;;11.95;2.28;;;6.80;99.90;;;;;;4965376;28;20829;-67
2024/02/02 00:24:51;;;;;;;11.68;2.00;;;6.80;99.90;;;;;;4963560;28;20043;-66
2024/02/02 00:27:18;;;;;;;9.75;1.83;;;6.80;99.90;;;;;;4964854;28;20023;-66
2024/02/02 00:29:45;;;;;;;12.48;1.95;;;6.70;99.90;;;;;;4965345;28;20038;-67
2024/02/02 00:32:15;;;;;;;11.10;2.17;;;6.70;99.90;;;;;;4962349;28;20035;-66
2024/02/02 00:34:41;;;;;;;19.60;2.65;;;6.60;99.90;;;;;;4964285;28;20101;-66
2024/02/02 00:37:07;;;;;;;10.65;2.58;;;6.60;99.90;;;;;;4965313;28;20118;-67
2024/02/02 00:39:33;;;;;;;17.15;2.05;;;6.50;99.90;;;;;;4963050;28;20100;-66
2024/02/02 00:41:59;;;;;;;13.50;2.47;;;6.60;99.90;;;;;;4963864;28;20030;-67
2024/02/02 00:44:25;;;;;;;9.35;1.60;;;6.50;99.90;;;;;;4964845;28;20093;-67
2024/02/02 00:46:51;;;;;;;9.73;1.92;;;6.50;99.90;;;;;;4965454;28;20037;-67
2024/02/02 00:49:17;;;;;;;11.40;1.88;;;6.40;99.90;;;;;;4965240;28;20058;-67
2024/02/02 00:51:42;;;;;;;16.83;3.72;;;6.40;99.90;;;;;;4963535;28;20047;-66
2024/02/02 00:54:08;;;;;;;14.95;2.42;;;6.50;99.90;;;;;;4965077;28;20037;-67
2024/02/02 00:56:34;;;;;;;16.73;2.45;;;6.40;99.90;;;;;;4963473;28;20093;-66
2024/02/02 00:59:00;;;;;;;14.85;3.63;;;6.40;99.90;;;;;;4962400;28;20049;-66
2024/02/02 01:01:26;;;;;;;18.90;2.83;;;6.50;99.90;;;;;;4964925;28;20078;-67
2024/02/02 01:03:51;;;;;;;17.00;2.47;;;6.60;99.90;;;;;;4965197;28;20110;-66
2024/02/02 01:06:17;;;;;;;16.85;2.97;;;6.70;99.90;;;;;;4963076;28;20039;-67
2024/02/02 01:08:43;;;;;;;15.60;2.58;;;6.80;99.90;;;;;;4961876;28;20034;-67
2024/02/02 01:11:09;;;;;;;16.50;2.22;;;6.80;99.90;;;;;;4963933;28;20113;-67
2024/02/02 01:13:35;;;;;;;13.57;2.88;;;6.80;99.90;;;;;;4964407;28;20027;-66
2024/02/02 01:16:01;;;;;;;13.07;2.88;;;6.90;99.90;;;;;;4964746;28;20039;-66
2024/02/02 01:18:27;;;;;;;13.02;2.75;;;6.90;99.90;;;;;;4964910;28;20457;-66
2024/02/02 01:20:53;;;;;;;9.80;2.33;;;7.00;99.90;;;;;;4962101;28;20585;-67
2024/02/02 01:23:18;;;;;;;31.52;3.75;;;7.00;99.90;;;;;;4964799;28;20058;-65
2024/02/02 01:25:44;;;;;;;16.80;3.22;;;7.10;99.90;;;;;;4962976;28;20031;-66
2024/02/02 01:28:10;;;;;;;13.00;2.80;;;7.10;99.90;;;;;;4963597;28;20031;-67
2024/02/02 01:30:36;;;;;;;14.23;2.28;;;7.00;99.90;;;;;;4965055;28;20034;-66
2024/02/02 01:33:02;;;;;;;16.55;2.80;;;7.00;99.90;;;;;;4962794;28;20035;-67
2024/02/02 01:35:27;;;;;;;11.07;3.00;;;7.10;99.90;;;;;;4962242;28;20030;-64
2024/02/02 01:37:54;;;;;;;14.88;2.90;;;7.00;99.90;;;;;;4961729;28;20054;-63
2024/02/02 01:40:19;;;;;;;8.35;2.25;;;7.00;99.90;;;;;;4964100;28;20388;-64
2024/02/02 01:42:46;;;;;;;8.50;2.20;;;7.00;99.90;;;;;;4963395;28;20023;-64
2024/02/02 01:45:11;;;;;;;28.58;4.22;;;7.00;99.90;;;;;;4974323;28;20105;-64
2024/02/02 01:47:37;;;;;;;13.85;2.67;;;7.10;99.90;;;;;;4965982;28;20042;-64
2024/02/02 01:50:03;;;;;;;13.30;2.58;;;7.00;99.90;;;;;;4966461;28;20035;-64
2024/02/02 01:52:30;;;;;;;19.98;2.88;;;7.10;99.90;;;;;;4966562;28;20038;-64
2024/02/02 01:54:56;;;;;;;13.27;3.33;;;7.00;99.90;;;;;;4967915;28;20034;-63
2024/02/02 01:57:22;;;;;;;26.02;3.08;;;7.10;99.90;;;;;;4967848;28;20035;-64
2024/02/02 01:59:49;;;;;;;15.48;3.03;;;7.10;99.90;;;;;;4967564;28;20045;-64
2024/02/02 02:02:14;;;;;;;12.93;2.45;;;7.10;99.90;;;;;;4967675;28;20498;-64
2024/02/02 02:04:40;;;;;;;16.85;3.20;;;7.00;99.90;;;;;;4967974;28;20066;-64
2024/02/02 02:07:07;;;;;;;13.57;2.63;;;7.00;99.90;;;;;;4967555;28;20672;-64
2024/02/02 02:09:33;;;;;;;10.80;3.05;;;7.10;99.90;;;;;;4967941;28;20853;-63
2024/02/02 02:12:01;;;;;;;8.75;2.75;;;7.10;99.90;;;;;;4967982;28;20027;-64
2024/02/02 02:14:27;;;;;;;15.55;3.40;;;7.10;99.90;;;;;;4967988;28;20038;-64
2024/02/02 02:16:53;;;;;;;18.40;3.53;;;7.20;99.90;;;;;;4967183;28;20046;-63
2024/02/02 02:19:18;;;;;;;11.13;3.10;;;7.20;99.90;;;;;;4967555;28;20030;-64
2024/02/02 02:21:44;;;;;;;14.13;3.15;;;7.20;99.90;;;;;;4967130;28;20161;-63
2024/02/02 02:24:10;;;;;;;14.18;3.80;;;7.20;99.90;;;;;;4967408;28;20664;-64
2024/02/02 02:26:37;;;;;;;12.73;3.05;;;7.10;99.90;;;;;;4967339;28;20031;-64
2024/02/02 02:29:03;;;;;;;19.42;3.38;;;7.20;99.90;;;;;;4967302;28;20157;-64
2024/02/02 02:31:29;;;;;;;19.75;3.92;;;7.10;99.90;;;;;;4967509;28;20027;-64
2024/02/02 02:33:55;;;;;;;16.00;3.38;;;7.10;99.90;;;;;;4966970;28;20454;-64
2024/02/02 02:36:21;;;;;;;16.52;3.72;;;7.10;99.90;;;;;;4967189;28;20038;-63
2024/02/02 02:38:48;;;;;;;15.23;3.63;;;7.10;99.90;;;;;;4965345;28;20030;-64
2024/02/02 02:41:14;;;;;;;13.82;3.40;;;7.10;99.90;;;;;;4966924;28;20118;-64
2024/02/02 02:43:40;;;;;;;16.60;3.95;;;7.00;99.90;;;;;;4967292;28;20118;-64
2024/02/02 02:46:06;;;;;;;15.85;3.25;;;7.00;99.90;;;;;;4966467;28;20058;-64
2024/02/02 02:48:33;;;;;;;16.42;4.22;;;7.00;99.90;;;;;;4966066;28;20502;-63
2024/02/02 02:50:59;;;;;;;9.60;2.90;;;7.10;99.90;;;;;;4966610;28;20026;-63
2024/02/02 02:53:25;;;;;;;11.50;2.85;;;7.10;99.90;;;;;;4965445;28;20026;-63
2024/02/02 02:55:51;;;;;;;15.63;3.85;;;7.10;99.90;;;;;;4966381;28;20035;-63
2024/02/02 02:58:17;;;;;;;15.73;3.70;;;7.10;99.90;;;;;;4966697;28;20038;-64
2024/02/02 03:00:44;;;;;;;18.42;3.33;;;6.90;99.90;;;;;;4966750;28;20035;-63
2024/02/02 03:03:09;;;;;;;21.92;3.13;;;6.90;99.90;;;;;;4966474;28;20042;-63
2024/02/02 03:05:37;;;;;;;15.52;3.78;;;6.90;99.90;;;;;;4966200;28;20027;-63
2024/02/02 03:08:05;;;;;;;18.77;4.03;;;7.00;99.90;;;;;;4965258;28;20085;-63
2024/02/02 03:10:31;;;;;;;18.45;3.65;;;7.00;99.90;;;;;;4966896;28;20046;-64
2024/02/02 03:12:57;;;;;;;23.48;3.78;;;7.00;99.90;;;;;;4966613;28;20042;-63
2024/02/02 03:15:23;;;;;;;11.02;3.15;;;7.00;99.90;;;;;;4966375;28;20031;-65
2024/02/02 03:17:49;;;;;;;13.93;3.47;;;7.00;99.90;;;;;;4965985;28;20034;-63
2024/02/02 03:20:15;;;;;;;12.73;3.53;;;7.00;99.90;;;;;;4966320;28;21652;-63
2024/02/02 03:22:41;;;;;;;17.58;3.33;;;7.00;99.90;;;;;;4966576;28;20402;-63
2024/02/02 03:25:08;;;;;;;17.10;3.10;;;7.00;99.90;;;;;;4966133;28;20046;-63
2024/02/02 03:27:34;;;;;;;15.55;3.05;;;7.00;99.90;;;;;;4965680;28;20093;-63
2024/02/02 03:30:00;;;;;;;13.05;3.22;;;7.00;99.90;;;;;;4966025;28;20459;-63
2024/02/02 03:32:26;;;;;;;10.00;3.05;;;7.00;99.90;;;;;;4966119;28;20034;-63
2024/02/02 03:34:51;;;;;;;10.82;3.10;;;7.10;99.90;;;;;;4966120;28;20061;-63
2024/02/02 03:37:19;;;;;;;16.88;2.88;;;7.00;99.90;;;;;;4965855;28;20030;-63
2024/02/02 03:39:48;;;;;;;16.27;3.30;;;7.10;99.90;;;;;;4966344;28;20043;-63
2024/02/02 03:42:14;;;;;;;14.68;2.88;;;7.00;99.90;;;;;;4966110;28;20037;-63
2024/02/02 03:44:39;;;;;;;17.60;3.97;;;7.00;99.90;;;;;;4966518;28;20035;-63
2024/02/02 03:47:05;;;;;;;14.48;3.90;;;6.90;99.90;;;;;;4965485;28;20049;-63
2024/02/02 03:49:34;;;;;;;13.43;3.05;;;6.90;99.90;;;;;;4966062;28;20037;-63
2024/02/02 03:52:01;;;;;;;18.52;3.55;;;6.90;99.90;;;;;;4965522;28;20074;-63
2024/02/02 03:54:27;;;;;;;15.10;3.63;;;6.80;99.90;;;;;;4964645;28;20030;-63
2024/02/02 03:56:54;;;;;;;17.08;3.13;;;6.80;99.90;;;;;;4965603;28;20113;-63
2024/02/02 03:59:19;;;;;;;15.18;2.95;;;6.80;99.90;;;;;;4964416;28;20058;-63
2024/02/02 04:01:46;;;;;;;12.55;3.05;;;6.80;99.90;;;;;;4965596;28;20202;-63
2024/02/02 04:04:12;;;;;;;16.60;4.13;;;6.80;99.90;;;;;;4965560;28;20504;-63
2024/02/02 04:06:38;;;;;;;13.15;2.83;;;6.80;99.90;;;;;;4964835;28;20031;-63
2024/02/02 04:09:03;;;;;;;11.32;2.10;;;6.90;99.90;;;;;;4965154;28;20066;-63
2024/02/02 04:11:30;;;;;;;11.88;2.60;;;6.90;99.90;;;;;;4965428;28;20164;-63
2024/02/02 04:13:56;;;;;;;7.50;2.33;;;6.90;99.90;;;;;;4965266;28;20106;-63
2024/02/02 04:16:22;;;;;;;15.63;2.53;;;6.90;99.90;;;;;;4962648;28;20509;-63
2024/02/02 04:18:48;;;;;;;6.90;2.33;;;6.90;99.90;;;;;;4964650;28;20574;-63
2024/02/02 04:21:14;;;;;;;17.35;2.95;;;6.90;99.90;;;;;;4965541;28;20077;-63
2024/02/02 04:23:41;;;;;;;16.15;3.00;;;6.90;99.90;;;;;;4965497;28;20445;-62
2024/02/02 04:26:06;;;;;;;11.10;2.40;;;6.90;99.90;;;;;;4965322;28;20048;-63
2024/02/02 04:28:32;;;;;;;12.48;2.25;;;6.90;99.90;;;;;;4964996;28;20034;-63
2024/02/02 04:30:58;;;;;;;13.10;2.53;;;6.90;99.90;;;;;;4964703;28;20034;-63
2024/02/02 04:33:24;;;;;;;10.30;2.03;;;6.90;99.90;;;;;;4964589;28;20058;-63
2024/02/02 04:35:49;;;;;;;8.45;2.35;;;7.00;99.90;;;;;;4965067;28;20063;-63
2024/02/02 04:38:18;;;;;;;12.27;2.72;;;7.00;99.90;;;;;;4964739;28;20066;-63
2024/02/02 04:40:47;;;;;;;15.38;2.10;;;7.00;99.90;;;;;;4964841;28;20035;-63
2024/02/02 04:43:13;;;;;;;10.63;2.10;;;7.00;99.90;;;;;;4965117;28;20031;-63
2024/02/02 04:45:39;;;;;;;12.57;2.55;;;7.00;99.90;;;;;;4965357;28;20033;-62
2024/02/02 04:48:05;;;;;;;11.23;2.20;;;7.10;99.90;;;;;;4964072;28;20270;-63
2024/02/02 04:50:31;;;;;;;14.98;2.50;;;7.10;99.90;;;;;;4964268;28;20156;-63
2024/02/02 04:52:57;;;;;;;9.05;2.55;;;7.10;99.90;;;;;;4964701;28;20680;-63
2024/02/02 04:55:23;;;;;;;18.05;2.70;;;7.10;99.90;;;;;;4964813;28;20808;-63
2024/02/02 04:57:49;;;;;;;16.42;2.58;;;7.10;99.90;;;;;;4964283;28;20105;-63
2024/02/02 05:00:16;;;;;;;14.10;3.08;;;7.20;99.90;;;;;;4964769;28;20496;-63
2024/02/02 05:02:42;;;;;;;10.93;2.58;;;7.20;99.90;;;;;;4964596;28;20031;-63
2024/02/02 05:05:08;;;;;;;8.57;2.30;;;7.10;99.90;;;;;;4964557;28;20030;-63
2024/02/02 05:07:35;;;;;;;10.68;2.13;;;7.10;99.90;;;;;;4964312;28;20104;-63
2024/02/02 05:10:01;;;;;;;11.10;1.98;;;7.10;99.90;;;;;;4964551;28;20030;-63
2024/02/02 05:12:27;;;;;;;13.55;2.13;;;7.20;99.90;;;;;;4964513;28;20058;-63
2024/02/02 05:14:53;;;;;;;11.23;2.15;;;7.10;99.90;;;;;;4964282;28;20038;-63
2024/02/02 05:17:18;;;;;;;11.63;2.13;;;7.10;99.90;;;;;;4963457;28;20038;-63
2024/02/02 05:19:45;;;;;;;15.05;2.58;;;7.20;99.90;;;;;;4964270;28;20034;-63
2024/02/02 05:22:10;;;;;;;12.25;3.17;;;7.20;99.90;;;;;;4963127;28;20455;-63
2024/02/02 05:24:36;;;;;;;7.70;2.30;;;7.20;99.90;;;;;;4964747;28;20118;-63
2024/02/02 05:27:02;;;;;;;12.80;2.25;;;7.20;99.90;;;;;;4964237;28;20085;-63
2024/02/02 05:29:28;;;;;;;11.23;2.22;;;7.30;99.90;;;;;;4964266;28;20454;-63
2024/02/02 05:31:53;;;;;;;9.52;2.53;;;7.20;99.90;;;;;;4963366;28;20027;-63
2024/02/02 05:34:19;;;;;;;17.65;2.58;;;7.30;99.90;;;;;;4963996;28;20030;-63
2024/02/02 05:36:45;;;;;;;9.82;2.35;;;7.20;99.90;;;;;;4962789;28;20101;-63
2024/02/02 05:39:11;;;;;;;9.90;2.10;;;7.20;99.90;;;;;;4962643;28;20037;-63
2024/02/02 05:41:37;;;;;;;13.38;3.08;;;7.20;99.90;;;;;;4964013;28;20039;-63
2024/02/02 05:44:03;;;;;;;11.88;2.15;;;7.20;99.90;;;;;;4964080;28;20042;-62
2024/02/02 05:46:28;;;;;;;7.90;1.85;;;7.20;99.90;;;;;;4963068;28;20047;-63
2024/02/02 05:48:54;;;;;;;14.43;2.95;;;7.20;99.90;;;;;;4963302;28;20035;-62
2024/02/02 05:51:20;;;;;;;14.63;2.35;;;7.20;99.90;;;;;;4962983;28;20038;-63
2024/02/02 05:53:46;;;;;;;11.38;2.28;;;7.20;99.90;;;;;;4963533;28;20030;-63
2024/02/02 05:56:12;;;;;;;13.35;2.88;;;7.20;99.90;;;;;;4963441;28;20077;-63
2024/02/02 05:58:37;;;;;;;16.60;4.97;;;7.20;99.90;;;;;;4962815;28;20757;-63
2024/02/02 06:01:03;;;;;;;19.27;6.35;;;7.10;99.90;;;;;;4962923;28;20038;-62
2024/02/02 06:03:29;;;;;;;16.30;3.35;;;7.10;99.90;;;;;;4963314;28;20037;-63
2024/02/02 06:05:55;;;;;;;16.13;4.47;;;7.10;99.90;;;;;;4961938;28;20031;-62
2024/02/02 06:08:21;;;;;;;20.20;3.83;;;7.10;99.90;;;;;;4962755;28;20086;-63
2024/02/02 06:10:47;;;;;;;7.60;2.65;;;7.00;99.90;;;;;;4962853;28;20048;-62
2024/02/02 06:13:17;;;;;;;14.75;3.17;;;7.10;99.90;;;;;;4961965;28;20039;-63
2024/02/02 06:15:43;;;;;;;20.85;4.47;;;7.00;99.90;;;;;;4962354;28;20037;-62
2024/02/02 06:18:09;;;;;;;15.98;5.22;;;7.10;99.90;;;;;;4962659;28;20608;-62
2024/02/02 06:20:35;;;;;;;22.05;6.75;;;7.00;99.90;;;;;;4962631;28;20126;-62
2024/02/02 06:23:01;;;;;;;15.85;6.72;;;7.10;99.90;;;;;;4962810;28;20181;-63
2024/02/02 06:25:26;;;;;;;10.27;4.63;;;7.00;99.90;;;;;;4962837;28;20488;-62
2024/02/02 06:27:52;;;;;;;15.80;4.85;;;7.10;99.90;;;;;;4962253;28;20043;-63
2024/02/02 06:30:18;;;;;;;16.42;4.18;;;7.10;99.90;;;;;;4963665;28;20032;-63
2024/02/02 06:32:48;;;;;;;15.35;3.80;;;7.10;99.90;;;;;;4966176;28;20023;-63
2024/02/02 06:35:15;;;;;;;16.63;3.35;;;7.00;99.90;;;;;;4964737;28;20057;-63
2024/02/02 06:37:41;;;;;;;13.13;3.80;;;7.10;99.90;;;;;;4964936;28;20069;-62
2024/02/02 06:40:07;;;;;;;31.88;10.77;;;7.00;99.90;;;;;;4966065;28;20498;-63
2024/02/02 06:42:33;;;;;;;23.27;7.32;;;7.10;99.90;;;;;;4965600;28;20035;-63
2024/02/02 06:44:59;;;;;;;19.63;4.47;;;7.10;99.90;;;;;;4965629;28;20035;-63
2024/02/02 06:47:25;;;;;;;19.23;2.90;;;7.10;99.90;;;;;;4964433;28;20027;-62
2024/02/02 06:49:51;;;;;;;20.30;6.93;;;7.10;99.90;;;;;;4923824;28;1160933;-62
2024/02/02 06:52:18;;;;;;;23.50;6.13;;;7.10;99.90;;;;;;4965868;28;20051;-63
2024/02/02 06:54:44;;;;;;;21.60;5.85;;;7.10;99.90;;;;;;4966601;28;20031;-62
2024/02/02 06:57:10;;;;;;;27.25;8.75;;;7.00;99.90;;;;;;4965385;28;20027;-64
2024/02/02 06:59:41;;;;;;;27.85;10.13;;;7.00;99.90;;;;;;4965209;28;20368;-65
2024/02/02 07:02:38;;;;;;;16.15;5.07;;;6.80;99.90;;;;;;4966358;28;20051;-65
2024/02/02 07:05:04;;;;;;;12.60;4.13;;;6.90;99.90;;;;;;4965411;28;20089;-65
2024/02/02 07:07:30;;;;;;;10.90;3.67;;;6.90;99.90;;;;;;4967106;28;20042;-64
2024/02/02 07:09:56;;;;;;;21.10;5.15;;;6.90;99.90;;;;;;4947063;28;20023;-69
2024/02/02 07:12:40;;;;;;;28.27;8.00;;;7.00;99.90;;;;;;4966432;28;20502;-69
2024/02/02 07:15:10;;;;;;;24.80;7.20;;;7.10;99.90;;;;;;4965869;28;20669;-68
2024/02/02 07:17:40;;;;;;;32.15;9.30;;;7.10;99.90;;;;;;4966123;28;20034;-68
2024/02/02 07:20:32;;;;;;;33.80;10.52;;;7.20;99.90;;;;;;4965061;28;20036;-69
2024/02/02 07:23:01;;;;;;;30.70;10.57;;;7.00;99.90;;;;;;4943176;28;20046;-68
2024/02/02 07:25:31;;;;;;;60.28;18.23;;;6.90;99.90;;;;;;4963375;28;20108;-69
2024/02/02 07:28:06;;;;;;;38.53;12.93;;;7.30;99.90;;;;;;4964941;28;20038;-69
2024/02/02 07:30:44;;;;;;;34.60;10.27;;;8.00;99.90;;;;;;4960881;28;20026;-69
2024/02/02 07:33:24;;;;;;;21.83;5.13;;;8.90;99.90;;;;;;4966119;28;20026;-71
2024/02/02 07:35:52;;;;;;;15.00;6.07;;;9.50;99.90;;;;;;4965294;28;20121;-67
2024/02/02 07:38:44;;;;;;;9.90;3.28;;;9.60;99.90;;;;;;4965951;28;20046;-68
2024/02/02 07:41:12;;;;;;;16.15;3.10;;;9.50;99.90;;;;;;4953718;28;20126;-69
2024/02/02 07:43:38;;;;;;;15.85;4.65;;;9.30;99.90;;;;;;4963856;28;20039;-68
2024/02/02 07:46:05;;;;;;;19.17;3.72;;;8.90;99.90;;;;;;4965563;28;20030;-68
2024/02/02 07:48:33;;;;;;;13.90;4.72;;;8.50;99.90;;;;;;4964287;28;20086;-68
2024/02/02 07:50:59;;;;;;;16.90;4.10;;;8.10;99.90;;;;;;4965830;28;20050;-68
2024/02/02 07:53:24;;;;;;;26.08;4.22;;;7.80;99.90;;;;;;4964721;28;20138;-69
2024/02/02 07:55:51;;;;;;;10.70;4.28;;;7.60;99.90;;;;;;4963322;28;20077;-69
2024/02/02 07:58:20;;;;;;;16.73;4.97;;;7.60;99.90;;;;;;4964618;28;20125;-68
2024/02/02 08:00:49;;;;;;;16.30;4.72;;;7.70;99.90;;;;;;4964206;28;20042;-68
2024/02/02 08:03:15;;;;;;;14.98;4.65;;;7.50;99.90;;;;;;4965590;28;20035;-68
2024/02/02 08:05:41;;;;;;;12.18;4.20;;;7.50;99.90;;;;;;4960713;28;20124;-68
2024/02/02 08:08:10;;;;;;;11.43;4.18;;;7.70;99.90;;;;;;4963790;28;20038;-67
2024/02/02 08:10:41;;;;;;;11.65;4.15;;;7.70;99.90;;;;;;4962433;28;20031;-67
2024/02/02 08:13:11;;;;;;;16.80;5.00;;;7.60;99.90;;;;;;4965276;28;20041;-67
2024/02/02 08:15:37;;;;;;;21.90;5.80;;;7.50;99.90;;;;;;4965509;28;20119;-67
2024/02/02 08:18:08;;;;;;;14.48;4.15;;;7.40;99.90;;;;;;4964087;28;20038;-67
2024/02/02 08:20:34;;;;;;;12.18;4.65;;;7.30;99.90;;;;;;4964860;28;20045;-67
2024/02/02 08:23:01;;;;;;;18.73;5.03;;;7.30;99.90;;;;;;4964726;28;20046;-67
2024/02/02 08:25:27;;;;;;;19.90;4.28;;;7.30;99.90;;;;;;4964970;28;20577;-67
2024/02/02 08:27:53;;;;;;;11.57;4.05;;;7.40;99.90;;;;;;4965098;28;20038;-67
2024/02/02 08:30:19;;;;;;;15.98;4.32;;;7.50;99.90;;;;;;4961743;28;20027;-67
2024/02/02 08:32:51;;;;;;;11.32;5.03;;;7.50;99.90;;;;;;4964954;28;20884;-65
2024/02/02 08:35:21;;;;;;;21.05;4.40;;;7.50;99.90;;;;;;4964954;28;20057;-67
2024/02/02 08:37:50;;;;;;;15.52;5.03;;;7.60;99.90;;;;;;4964693;28;20047;-68
2024/02/02 08:40:25;;;;;;;9.18;3.95;;;7.80;99.90;;;;;;4965121;28;20093;-68
2024/02/02 08:42:51;;;;;;;15.50;4.88;;;7.60;99.90;;;;;;4966060;28;20114;-69
2024/02/02 08:45:42;;;;;;;10.82;3.65;;;7.80;99.90;;;;;;4965602;28;20041;-68
2024/02/02 08:48:23;;;;;;;10.00;4.22;;;7.80;99.90;;;;;;4964281;28;20118;-69
2024/02/02 08:50:58;;;;;;;16.38;4.10;;;7.80;99.90;;;;;;4965302;28;20042;-69
2024/02/02 08:53:25;;;;;;;13.73;4.22;;;7.90;99.90;;;;;;4965803;28;20378;-70
2024/02/02 08:55:51;;;;;;;17.10;5.25;;;7.90;99.90;;;;;;4964719;28;20042;-68
2024/02/02 08:58:27;;;;;;;14.65;4.70;;;7.90;99.90;;;;;;4965538;28;20038;-68
2024/02/02 09:00:54;;;;;;;15.77;4.97;;;7.70;99.90;;;;;;4964435;28;20145;-70
2024/02/02 09:03:27;;;;;;;16.88;4.95;;;7.70;99.90;;;;;;4980028;28;20035;-70
2024/02/02 09:05:57;;;;;;;13.68;4.05;;;7.60;99.90;;;;;;4965388;28;20184;-69
2024/02/02 09:08:31;;;;;;;17.45;4.07;;;7.30;99.90;;;;;;4964223;28;20031;-69
2024/02/02 09:11:12;;;;;;;9.95;4.03;;;7.40;99.90;;;;;;4953165;28;20026;-68
2024/02/02 09:13:41;;;;;;;25.10;9.98;;;7.60;99.90;;;;;;4953848;28;20215;-68
2024/02/02 09:16:09;;;;;;;27.52;8.57;;;7.70;99.90;;;;;;4955527;28;20761;-68
2024/02/02 09:18:39;;;;;;;21.67;11.55;;;7.80;99.90;;;;;;4973800;28;20045;-68
2024/02/02 09:21:07;;;;;;;16.90;5.65;;;7.90;99.90;;;;;;4960985;28;20043;-68
2024/02/02 09:23:33;;;;;;;9.82;4.20;;;7.90;99.90;;;;;;4964778;28;20046;-68
2024/02/02 09:26:11;;;;;;;13.57;5.97;;;8.00;99.90;;;;;;4965254;28;20375;-67
2024/02/02 09:28:44;;;;;;;20.80;7.88;;;8.20;99.90;;;;;;4965164;28;20027;-68
2024/02/02 09:31:21;;;;;;;7.15;3.92;;;8.20;99.90;;;;;;4964361;28;20529;-68
2024/02/02 09:33:50;;;;;;;13.93;5.88;;;8.30;99.90;;;;;;4964018;28;20026;-68
2024/02/02 09:36:17;;;;;;;13.07;5.10;;;8.30;99.90;;;;;;4964004;28;20030;-69
2024/02/02 09:39:29;;;;;;;13.95;4.57;;;8.30;99.90;;;;;;4963781;28;20043;-68
2024/02/02 09:41:58;;;;;;;16.80;5.10;;;8.00;99.90;;;;;;4942585;28;20946;-69
2024/02/02 09:44:42;;;;;;;18.42;5.30;;;7.90;99.90;;;;;;4964368;28;20031;-69
2024/02/02 09:47:28;;;;;;;14.30;4.72;;;7.80;99.90;;;;;;4963028;28;20031;-69
2024/02/02 09:49:56;;;;;;;15.20;5.03;;;7.80;99.90;;;;;;4964390;28;20528;-69
2024/02/02 09:52:56;;;;;;;12.00;4.25;;;7.70;99.90;;;;;;4961361;28;20038;-69
2024/02/02 09:55:42;;;;;;;10.82;3.60;;;7.80;99.90;;;;;;4964575;28;20057;-69
2024/02/02 09:58:25;;;;;;;16.50;4.38;;;7.80;99.90;;;;;;4951014;28;20047;-69
2024/02/02 10:00:59;;;;;;;10.13;2.70;;;7.70;99.90;;;;;;4953771;28;20664;-68
2024/02/02 10:04:06;;;;;;;10.57;4.38;;;7.70;99.90;;;;;;4961835;28;20031;-69
2024/02/02 10:06:58;;;;;;;11.95;3.05;;;7.70;99.90;;;;;;4943967;29;21019;-70
2024/02/02 10:09:51;;;;;;;16.55;4.78;;;7.80;99.90;;;;;;4982605;28;20069;-69
2024/02/02 10:12:26;;;;;;;7.78;3.10;;;7.70;99.90;;;;;;4967190;28;20023;-69
2024/02/02 10:15:13;;;;;;;16.88;3.72;;;7.90;99.90;;;;;;4966624;28;20027;-69
2024/02/02 10:17:54;;;;;;;11.82;3.95;;;7.60;99.90;;;;;;4968743;28;20101;-69
2024/02/02 10:20:23;;;;;;;12.35;4.05;;;7.50;99.90;;;;;;4968909;28;20027;-69
2024/02/02 10:23:11;;;;;;;12.00;2.38;;;7.60;99.90;;;;;;4968050;28;20023;-70
2024/02/02 10:26:15;;;;;;;22.25;7.55;;;7.50;99.90;;;;;;4966250;28;20038;-69
2024/02/02 10:29:05;;;;;;;19.58;5.90;;;7.50;99.90;;;;;;4966199;28;20085;-70
2024/02/02 10:32:00;;;;;;;9.85;2.45;;;7.60;99.90;;;;;;4966261;28;20150;-70
2024/02/02 10:34:31;;;;;;;26.65;8.73;;;7.60;99.90;;;;;;4940485;28;20110;-70
2024/02/02 10:37:15;;;;;;;14.27;3.72;;;7.60;99.90;;;;;;4966332;28;20552;-70
2024/02/02 10:40:06;;;;;;;13.50;3.05;;;7.70;99.90;;;;;;4968001;28;20031;-69
2024/02/02 10:42:54;;;;;;;14.35;4.63;;;7.70;99.90;;;;;;4967635;28;20494;-68
2024/02/02 10:45:40;;;;;;;8.55;2.97;;;7.70;99.90;;;;;;4956833;28;20426;-68
2024/02/02 10:48:24;;;;;;;34.08;9.57;;;7.90;99.90;;;;;;4967012;28;20715;-68
2024/02/02 10:50:53;;;;;;;7.88;2.90;;;7.80;99.90;;;;;;4965445;28;20046;-68
2024/02/02 10:53:21;;;;;;;9.30;4.30;;;7.80;99.90;;;;;;4967601;28;20451;-68
2024/02/02 10:56:02;;;;;;;12.55;3.75;;;7.60;99.90;;;;;;4934379;28;20146;-68
2024/02/02 10:58:49;;;;;;;25.63;7.57;;;7.60;99.90;;;;;;4965388;28;20023;-68
2024/02/02 11:01:18;;;;;;;16.98;5.03;;;7.80;99.90;;;;;;4966872;28;20031;-67
2024/02/02 11:03:58;;;;;;;13.98;5.30;;;7.80;99.90;;;;;;4966383;28;20478;-68
2024/02/02 11:06:30;;;;;;;21.40;4.63;;;7.80;99.90;;;;;;4967376;28;20494;-70
2024/02/02 11:09:25;;;;;;;7.70;3.97;;;7.70;99.90;;;;;;4966448;28;20023;-69
2024/02/02 11:12:04;;;;;;;18.45;4.38;;;7.70;99.90;;;;;;4965788;28;20038;-69
2024/02/02 11:14:41;;;;;;;12.80;4.28;;;7.70;99.90;;;;;;4959243;28;20118;-69
2024/02/02 11:17:33;;;;;;;22.30;7.40;;;7.70;99.90;;;;;;4965194;28;20026;-68
2024/02/02 11:20:14;;;;;;;44.97;15.88;;;7.70;99.90;;;;;;4966364;28;20099;-68
2024/02/02 11:22:54;;;;;;;16.75;5.30;;;7.90;99.90;;;;;;4970327;28;20022;-70
2024/02/02 11:25:38;;;;;;;16.25;4.75;;;8.10;99.90;;;;;;4967370;28;20903;-70
2024/02/02 11:28:16;;;;;;;25.05;7.10;;;8.10;99.90;;;;;;4965027;28;20057;-70
2024/02/02 11:30:51;;;;;;;20.95;6.90;;;7.90;99.90;;;;;;4964741;28;20406;-69
2024/02/02 11:33:23;;;;;;;24.73;8.07;;;8.00;99.90;;;;;;4965151;28;20034;-70
2024/02/02 11:36:26;;;;;;;23.65;6.97;;;8.10;99.90;;;;;;4967224;28;20026;-69
2024/02/02 11:39:10;;;;;;;26.80;7.90;;;8.30;99.90;;;;;;4967226;28;20058;-69
2024/02/02 11:41:39;;;;;;;20.17;6.68;;;8.40;99.90;;;;;;4966293;28;20039;-70
2024/02/02 11:44:05;;;;;;;18.95;7.30;;;8.40;99.90;;;;;;4966715;28;20027;-69
2024/02/02 11:46:34;;;;;;;15.82;5.03;;;8.30;99.90;;;;;;4967173;28;20394;-69
2024/02/02 11:49:09;;;;;;;25.52;9.10;;;8.20;99.90;;;;;;4965475;28;20039;-69
2024/02/02 11:51:40;;;;;;;22.73;6.70;;;8.20;99.90;;;;;;4966085;28;20037;-69
2024/02/02 11:54:26;;;;;;;24.48;7.45;;;8.40;99.90;;;;;;4966479;28;20034;-69
2024/02/02 11:56:55;;;;;;;11.20;3.70;;;8.50;99.90;;;;;;4966522;28;20506;-70
2024/02/02 11:59:32;;;;;;;14.13;4.72;;;8.60;99.90;;;;;;4965168;28;20513;-70
2024/02/02 12:02:39;;;;;;;13.30;3.17;;;8.60;99.90;;;;;;4964272;28;20037;-69
2024/02/02 12:05:18;;;;;;;14.15;3.38;;;8.60;99.90;;;;;;4964147;28;20050;-68
2024/02/02 12:07:46;;;;;;;9.27;2.53;;;8.60;99.90;;;;;;4965607;28;20494;-69
2024/02/02 12:10:17;;;;;;;11.18;3.10;;;8.60;99.90;;;;;;4962541;28;20027;-70
2024/02/02 12:12:48;;;;;;;6.30;2.78;;;8.60;99.90;;;;;;4963818;28;20035;-71
2024/02/02 12:15:14;;;;;;;14.02;3.30;;;8.60;99.90;;;;;;4964559;28;20062;-70
2024/02/02 12:17:40;;;;;;;21.27;3.70;;;8.50;99.90;;;;;;4965259;28;20146;-69
2024/02/02 12:20:09;;;;;;;11.88;2.67;;;8.50;99.90;;;;;;4965287;28;20065;-70
2024/02/02 12:22:36;;;;;;;12.15;3.25;;;8.40;99.90;;;;;;4966031;28;20031;-70
2024/02/02 12:25:09;;;;;;;12.25;3.38;;;8.30;99.90;;;;;;4965327;28;20038;-69
2024/02/02 12:27:36;;;;;;;11.20;3.03;;;8.30;99.90;;;;;;4964456;28;20097;-69
2024/02/02 12:30:02;;;;;;;17.27;3.50;;;8.40;99.90;;;;;;4961419;28;20031;-71
2024/02/02 12:32:28;;;;;;;13.73;3.90;;;8.50;99.90;;;;;;4960421;28;20022;-71
2024/02/02 12:34:55;;;;;;;9.80;2.47;;;8.70;99.90;;;;;;4964720;28;20038;-69
2024/02/02 12:37:20;;;;;;;16.23;3.45;;;8.70;99.90;;;;;;4979847;28;20035;-71
2024/02/02 12:39:49;;;;;;;12.88;3.63;;;8.80;99.90;;;;;;4964036;28;20050;-70
2024/02/02 12:42:16;;;;;;;12.10;3.03;;;8.90;99.90;;;;;;4963513;28;20033;-68
2024/02/02 12:44:42;;;;;;;10.63;3.13;;;8.90;99.90;;;;;;4963726;28;20030;-66
2024/02/02 12:47:08;;;;;;;8.50;3.20;;;8.90;99.90;;;;;;4963315;28;20034;-69
2024/02/02 12:49:36;;;;;;;7.10;2.95;;;8.90;99.90;;;;;;4965105;28;20042;-69
2024/02/02 12:52:05;;;;;;;10.77;3.08;;;8.90;99.90;;;;;;4963335;28;20038;-69
2024/02/02 12:54:31;;;;;;;10.65;3.33;;;8.90;99.90;;;;;;4965254;28;20117;-69
2024/02/02 12:56:57;;;;;;;12.57;3.22;;;8.80;99.90;;;;;;4964899;28;20169;-69
2024/02/02 12:59:23;;;;;;;14.32;3.30;;;8.50;99.90;;;;;;4965452;28;20514;-69
2024/02/02 13:01:50;;;;;;;8.85;2.97;;;8.50;99.90;;;;;;4964897;28;20082;-69